»·PEaware :: N592BC KPSP-KOXR

N592BC :: KPSP-KOXR

FLIGHT INFORMATION

Flight Status: Arrived
Operator: Privately registered:
United States
More flights under this callsign
Pilot: Roger W. (24)
Aircraft: BEECH AIRCRAFT SUPER KING AIR COMMUTER
(BE20)
More flights by this aircraft type
Origin: KPSP Palm Springs Intl
United States
Destination: KOXR Oxnard
United States
More flights between these airports :: More routes between these airports
Route: +CATH1 PSP V388 PDZ V197 POM V264 ITSME V186 FIM
File this flight plan on PilotEdge
Remarks: TEC route PSPN15
Altitude:
(Current/Filed)
12,000ft
Speed:
(Current/Filed)
250kts
Departed: 20-Dec-17 09:42 PM
Arrived: 20-Dec-17 10:30 PM
Distance/Time
Traveled:
136nm/0:48
Distance/Time
To Go:
Arrived

Flight Plot

Page will automatically refresh every two minutes.


Map Options




Map Legend


Flown Route
Filed Route
Departure Airport
Arrival Airport
Navaid (VOR, NDB)
Fix

Horizontal Profiles

Position Reports

Time Latitude Longitude Heading Altitude Ground
Speed
20-Dec-17 21:16 33.823374 -116.507123 178 481ft 0kts
20-Dec-17 21:17 33.823374 -116.507123 178 481ft 0kts
20-Dec-17 21:18 33.823374 -116.507123 178 481ft 0kts
20-Dec-17 21:19 33.823374 -116.507123 178 481ft 0kts
20-Dec-17 21:20 33.823374 -116.507123 178 481ft 0kts
20-Dec-17 21:21 33.823374 -116.507123 178 481ft 0kts
20-Dec-17 21:25 33.823367 -116.507123 177 481ft 0kts
20-Dec-17 21:26 33.823363 -116.507122 177 481ft 0kts
20-Dec-17 21:27 33.823359 -116.507122 177 481ft 0kts
20-Dec-17 21:28 33.823356 -116.507122 177 481ft 0kts
20-Dec-17 21:29 33.823352 -116.507122 177 481ft 0kts
20-Dec-17 21:30 33.823348 -116.507122 177 481ft 0kts
20-Dec-17 21:31 33.823344 -116.507122 177 481ft 0kts
20-Dec-17 21:32 33.823340 -116.507121 177 481ft 0kts
20-Dec-17 21:33 33.823336 -116.507121 177 481ft 0kts
20-Dec-17 21:34 33.823431 -116.507126 177 481ft 2kts
20-Dec-17 21:35 33.823869 -116.507726 87 481ft 2kts
20-Dec-17 21:36 33.823868 -116.507754 87 481ft 0kts
20-Dec-17 21:37 33.823868 -116.507749 87 481ft 0kts
20-Dec-17 21:38 33.823959 -116.507530 49 481ft 0kts
20-Dec-17 21:39 33.824893 -116.505611 58 481ft 7kts
20-Dec-17 21:40 33.829279 -116.509047 322 481ft 28kts
20-Dec-17 21:41 33.834555 -116.513633 323 481ft 21kts
20-Dec-17 21:42 33.839087 -116.517629 354 481ft 0kts
20-Dec-17 21:43 33.839090 -116.517629 354 481ft 0kts
20-Dec-17 21:44 33.839092 -116.517630 354 481ft 0kts
20-Dec-17 21:45 33.839095 -116.517630 354 481ft 0kts
20-Dec-17 21:46 33.839097 -116.517630 354 481ft 0kts
20-Dec-17 21:47 33.838718 -116.515672 143 481ft 36kts
20-Dec-17 21:48 33.814613 -116.488350 117 1421ft 154kts
20-Dec-17 21:49 33.797481 -116.436155 108 3256ft 180kts
20-Dec-17 21:50 33.818726 -116.379810 52 5083ft 197kts
20-Dec-17 21:51 33.860488 -116.350584 325 6881ft 183kts
20-Dec-17 21:52 33.870207 -116.406169 268 8706ft 178kts
20-Dec-17 21:53 33.878371 -116.463918 283 10484ft 169kts
20-Dec-17 21:54 33.892190 -116.515097 281 11978ft 173kts
20-Dec-17 21:55 33.906788 -116.577113 284 12023ft 204kts
20-Dec-17 21:56 33.924260 -116.643819 284 12032ft 212kts
20-Dec-17 21:57 33.941601 -116.711951 284 12056ft 213kts
20-Dec-17 21:58 33.949132 -116.782615 267 12022ft 214kts
20-Dec-17 21:59 33.950570 -116.853742 278 12041ft 213kts
20-Dec-17 22:00 33.960537 -116.924243 279 12085ft 213kts
20-Dec-17 22:01 33.970449 -116.994743 279 12017ft 216kts
20-Dec-17 22:02 33.980381 -117.065983 279 12014ft 214kts
20-Dec-17 22:03 33.990196 -117.136800 279 12023ft 214kts
20-Dec-17 22:04 33.999939 -117.207331 279 12029ft 214kts
20-Dec-17 22:05 34.009753 -117.278785 280 12034ft 216kts
20-Dec-17 22:06 34.019592 -117.350645 280 12036ft 217kts
20-Dec-17 22:07 34.029348 -117.422308 280 12037ft 216kts
20-Dec-17 22:08 34.039072 -117.494013 280 12041ft 217kts
20-Dec-17 22:09 34.048786 -117.566093 280 12039ft 216kts
20-Dec-17 22:10 34.058401 -117.637644 281 12046ft 216kts
20-Dec-17 22:11 34.067972 -117.709059 281 12046ft 215kts
20-Dec-17 22:12 34.077471 -117.780394 281 12065ft 214kts
20-Dec-17 22:13 34.078020 -117.852725 272 12066ft 217kts
20-Dec-17 22:14 34.076166 -117.925461 273 12064ft 215kts
20-Dec-17 22:15 34.076133 -117.997652 280 12061ft 213kts
20-Dec-17 22:16 34.093677 -118.065620 289 12004ft 213kts
20-Dec-17 22:17 34.114246 -118.132817 289 11998ft 213kts
20-Dec-17 22:18 34.134685 -118.199627 290 11928ft 204kts
20-Dec-17 22:19 34.154875 -118.262690 291 10357ft 209kts
20-Dec-17 22:20 34.175231 -118.329183 291 9163ft 213kts
20-Dec-17 22:21 34.195358 -118.399570 290 7667ft 227kts
20-Dec-17 22:22 34.216007 -118.472949 290 6166ft 232kts
20-Dec-17 22:23 34.221193 -118.550157 272 5034ft 224kts
20-Dec-17 22:24 34.224953 -118.623197 275 4155ft 224kts
20-Dec-17 22:25 34.226554 -118.694206 269 4000ft 200kts
20-Dec-17 22:26 34.222054 -118.759381 270 4009ft 191kts
20-Dec-17 22:27 34.219785 -118.822785 271 4010ft 187kts
20-Dec-17 22:28 34.218120 -118.885747 272 4015ft 186kts
20-Dec-17 22:29 34.208527 -118.947389 253 4011ft 185kts
20-Dec-17 22:30 34.195615 -118.998391 268 3618ft 140kts
20-Dec-17 22:31 34.194894 -119.042266 285 2665ft 128kts
20-Dec-17 22:32 34.199801 -119.085359 270 1900ft 130kts
20-Dec-17 22:33 34.199828 -119.130219 272 1169ft 137kts
20-Dec-17 22:34 34.200305 -119.174353 271 437ft 133kts
20-Dec-17 22:35 34.200794 -119.204308 268 47ft 74kts
20-Dec-17 22:36 34.199927 -119.207020 162 47ft 0kts

Navigation Log

Ident Type
1. KPSP Airport
2. PSP Navaid
3. DEWAY Fix
4. ACINS Fix
5. LENHO Fix
6. KNDAL Fix
7. PDZ Navaid
8. POM Navaid
9. COVIN Fix
10. HOPUN Fix
11. ITSME Fix
12. ELMOO Fix
13. PURMS Fix
14. DARTS Fix
15. VNY Navaid
16. SESPE Fix
17. FIM Navaid
18. KOXR Airport